Time;durP1;ratioP1;P1;durP2;ratioP2;P2;SDS_P1;SDS_P2;PMS_P1;PMS_P2;Temp;Humidity;BMP_temperature;BMP_pressure;BME280_temperature;BME280_humidity;BME280_pressure;Samples;Min_cycle;Max_cycle;Signal;HPM_P1;HPM_P2
2023/05/23 00:01:06;;;;;;;;;;;;;;;16.94;63.43;100504.16;4970232;28;2103;-76
2023/05/23 00:03:32;;;;;;;;;;;;;;;16.94;63.44;100506.88;4972388;28;4395;-75
2023/05/23 00:05:59;;;;;;;;;;;;;;;16.93;63.40;100503.31;4955980;28;1188;-75
2023/05/23 00:08:25;;;;;;;;;;;;;;;16.92;63.36;100495.44;4953421;28;2097;-76
2023/05/23 00:10:52;;;;;;;;;;;;;;;16.93;63.41;100499.78;4972123;28;2078;-76
2023/05/23 00:13:18;;;;;;;;;;;;;;;16.91;63.35;100486.47;4971411;28;2032;-75
2023/05/23 00:15:45;;;;;;;;;;;;;;;16.91;63.34;100480.19;4970042;28;2213;-75
2023/05/23 00:18:12;;;;;;;;;;;;;;;16.90;63.27;100482.09;4970994;28;2070;-76
2023/05/23 00:20:40;;;;;;;;;;;;;;;16.90;63.31;100478.56;4971579;28;2095;-75
2023/05/23 00:23:07;;;;;;;;;;;;;;;16.89;63.47;100475.03;4969555;28;2067;-75
2023/05/23 00:25:34;;;;;;;;;;;;;;;16.90;63.32;100481.28;4971613;28;2161;-75
2023/05/23 00:28:01;;;;;;;;;;;;;;;16.89;63.23;100476.94;4969292;28;2113;-75
2023/05/23 00:30:27;;;;;;;;;;;;;;;16.88;63.29;100478.81;4968231;28;2074;-75
2023/05/23 00:32:54;;;;;;;;;;;;;;;16.87;63.37;100474.47;4952383;28;2060;-75
2023/05/23 00:35:20;;;;;;;;;;;;;;;16.87;63.26;100474.47;4971688;28;2059;-75
2023/05/23 00:37:49;;;;;;;;;;;;;;;16.86;63.12;100481.00;4971231;28;1092;-75
2023/05/23 00:40:15;;;;;;;;;;;;;;;16.85;63.38;100471.19;4969624;28;2114;-75
2023/05/23 00:42:42;;;;;;;;;;;;;;;16.85;63.24;100465.75;4972462;28;1917;-75
2023/05/23 00:45:08;;;;;;;;;;;;;;;16.84;63.19;100463.28;4970447;28;2094;-75
2023/05/23 00:47:35;;;;;;;;;;;;;;;16.84;63.26;100474.19;4970253;28;1887;-75
2023/05/23 00:50:01;;;;;;;;;;;;;;;16.84;63.16;100464.09;4954396;28;2004;-75
2023/05/23 00:52:28;;;;;;;;;;;;;;;16.82;63.16;100468.97;4970138;28;2051;-75
2023/05/23 00:54:54;;;;;;;;;;;;;;;16.82;63.29;100466.25;4969077;28;3480;-76
2023/05/23 00:57:21;;;;;;;;;;;;;;;16.82;63.36;100468.16;4950312;28;2442;-75
2023/05/23 00:59:47;;;;;;;;;;;;;;;16.80;63.10;100466.53;4970349;28;2549;-75
2023/05/23 01:02:14;;;;;;;;;;;;;;;16.80;63.06;100463.81;4951708;28;2140;-76
2023/05/23 01:04:40;;;;;;;;;;;;;;;16.78;63.20;100457.81;4953834;28;1962;-76
2023/05/23 01:07:09;;;;;;;;;;;;;;;16.78;63.20;100457.81;4970639;28;2043;-75
2023/05/23 01:09:35;;;;;;;;;;;;;;;16.78;63.21;100457.81;4953623;28;1997;-76
2023/05/23 01:12:02;;;;;;;;;;;;;;;16.78;63.02;100457.00;4953167;28;2613;-76
2023/05/23 01:14:28;;;;;;;;;;;;;;;16.76;63.21;100449.09;4969022;28;2266;-75
2023/05/23 01:16:55;;;;;;;;;;;;;;;16.76;63.23;100446.38;4968701;28;2273;-75
2023/05/23 01:19:21;;;;;;;;;;;;;;;16.75;63.05;100444.72;4970749;28;1914;-76
2023/05/23 01:21:51;;;;;;;;;;;;;;;16.75;63.16;100441.19;4969655;28;1994;-76
2023/05/23 01:24:18;;;;;;;;;;;;;;;16.73;63.10;100437.91;4968997;28;2187;-76
2023/05/23 01:26:44;;;;;;;;;;;;;;;16.73;63.11;100435.19;4971055;28;2050;-76
2023/05/23 01:29:11;;;;;;;;;;;;;;;16.72;63.14;100434.38;4971226;28;2182;-75
2023/05/23 01:31:37;;;;;;;;;;;;;;;16.73;63.09;100437.91;4969551;28;2472;-76
2023/05/23 01:34:04;;;;;;;;;;;;;;;16.72;63.10;100433.56;4970919;28;1846;-75
2023/05/23 01:36:33;;;;;;;;;;;;;;;16.71;63.01;100432.75;4969364;28;2366;-74
2023/05/23 01:39:00;;;;;;;;;;;;;;;16.71;63.11;100431.94;4952087;28;2152;-75
2023/05/23 01:41:27;;;;;;;;;;;;;;;16.69;63.04;100424.03;4970883;28;2019;-75
2023/05/23 01:43:53;;;;;;;;;;;;;;;16.68;63.04;100424.31;4969918;28;2140;-75
2023/05/23 01:46:20;;;;;;;;;;;;;;;16.68;62.98;100419.69;4967315;28;2169;-76
2023/05/23 01:48:46;;;;;;;;;;;;;;;16.68;63.10;100416.16;4967837;28;2021;-75
2023/05/23 01:51:13;;;;;;;;;;;;;;;16.68;63.05;100421.59;4969269;28;2092;-75
2023/05/23 01:53:39;;;;;;;;;;;;;;;16.66;63.03;100419.09;4969854;28;1845;-76
2023/05/23 01:56:06;;;;;;;;;;;;;;;16.66;62.96;100415.56;4953113;28;2084;-75
2023/05/23 01:58:32;;;;;;;;;;;;;;;16.65;62.98;100424.78;4969580;28;2190;-77
2023/05/23 02:00:59;;;;;;;;;;;;;;;16.65;62.91;100414.75;4968084;28;2165;-76
2023/05/23 02:03:25;;;;;;;;;;;;;;;16.65;62.98;100420.19;4969519;28;2103;-75
2023/05/23 02:05:52;;;;;;;;;;;;;;;16.63;63.09;100422.34;4954401;28;1970;-75
2023/05/23 02:08:18;;;;;;;;;;;;;;;16.63;62.94;100408.75;4969943;28;2007;-75
2023/05/23 02:10:45;;;;;;;;;;;;;;;16.63;63.01;100407.94;4969105;28;2051;-75
2023/05/23 02:13:12;;;;;;;;;;;;;;;16.62;62.84;100409.00;4968504;28;1973;-74
2023/05/23 02:15:38;;;;;;;;;;;;;;;16.62;62.86;100414.44;4966747;28;3803;-76
2023/05/23 02:18:05;;;;;;;;;;;;;;;16.61;62.97;100418.25;4969227;28;3964;-75
2023/05/23 02:20:31;;;;;;;;;;;;;;;16.60;62.92;100413.91;4968443;28;2216;-75
2023/05/23 02:22:58;;;;;;;;;;;;;;;16.58;62.89;100412.25;4970280;28;3713;-76
2023/05/23 02:25:25;;;;;;;;;;;;;;;16.60;63.00;100422.88;4952952;28;2285;-75
2023/05/23 02:27:51;;;;;;;;;;;;;;;16.58;62.92;100428.56;4955077;28;2128;-75
2023/05/23 02:30:17;;;;;;;;;;;;;;;16.57;62.94;100424.22;4972271;28;2177;-75
2023/05/23 02:32:44;;;;;;;;;;;;;;;16.57;62.93;100412.53;4973025;28;2185;-75
2023/05/23 02:35:10;;;;;;;;;;;;;;;16.57;62.86;100412.53;4955715;28;3731;-76
2023/05/23 02:37:37;;;;;;;;;;;;;;;16.56;62.98;100410.91;4973194;28;2023;-75
2023/05/23 02:40:06;;;;;;;;;;;;;;;16.55;62.83;100410.06;4971550;28;2028;-75
2023/05/23 02:42:32;;;;;;;;;;;;;;;16.54;62.87;100402.19;4972635;28;2032;-75
2023/05/23 02:44:59;;;;;;;;;;;;;;;16.54;62.89;100408.44;4973792;28;2059;-76
2023/05/23 02:47:25;;;;;;;;;;;;;;;16.53;62.73;100406.81;4957126;28;2322;-75
2023/05/23 02:49:52;;;;;;;;;;;;;;;16.53;62.90;100411.41;4956503;28;2048;-75
2023/05/23 02:52:19;;;;;;;;;;;;;;;16.52;62.74;100409.78;4955136;28;2060;-75
2023/05/23 02:54:46;;;;;;;;;;;;;;;16.52;62.83;100413.31;4954216;28;2117;-75
2023/05/23 02:57:12;;;;;;;;;;;;;;;16.50;62.76;100410.06;4973543;28;2052;-75
2023/05/23 02:59:39;;;;;;;;;;;;;;;16.50;62.89;100407.34;4971223;28;2493;-76
2023/05/23 03:02:06;;;;;;;;;;;;;;;16.50;62.71;100391.03;4971821;28;2114;-76
2023/05/23 03:04:32;;;;;;;;;;;;;;;16.49;62.71;100392.09;4972658;28;2047;-75
2023/05/23 03:06:59;;;;;;;;;;;;;;;16.48;62.74;100390.47;4974209;28;1825;-76
2023/05/23 03:09:26;;;;;;;;;;;;;;;16.48;62.63;100387.75;4972462;28;2129;-74
2023/05/23 03:11:52;;;;;;;;;;;;;;;16.49;62.66;100396.72;4955224;28;1884;-77
2023/05/23 03:14:19;;;;;;;;;;;;;;;16.47;62.63;100382.56;4972074;28;2071;-77
2023/05/23 03:16:45;;;;;;;;;;;;;;;16.46;62.66;100384.47;4955543;28;2186;-77
2023/05/23 03:19:12;;;;;;;;;;;;;;;16.45;62.61;100395.59;4972487;28;2062;-77
2023/05/23 03:21:38;;;;;;;;;;;;;;;16.46;62.65;100383.66;4955850;28;2060;-77
2023/05/23 03:24:05;;;;;;;;;;;;;;;16.45;62.63;100391.00;4970599;28;3618;-77
2023/05/23 03:26:32;;;;;;;;;;;;;;;16.44;62.71;100392.06;4954390;28;2570;-77
2023/05/23 03:28:58;;;;;;;;;;;;;;;16.44;62.59;100393.94;4954863;28;2070;-76
2023/05/23 03:31:25;;;;;;;;;;;;;;;16.43;62.58;100378.75;4963071;28;2832;-76
2023/05/23 03:33:52;;;;;;;;;;;;;;;16.43;62.57;100378.75;4957022;28;1335;-79
2023/05/23 03:36:19;;;;;;;;;;;;;;;16.43;62.53;100378.75;4973095;28;2237;-76
2023/05/23 03:38:45;;;;;;;;;;;;;;;16.41;62.57;100381.69;4954475;28;2056;-77
2023/05/23 03:41:12;;;;;;;;;;;;;;;16.41;62.56;100370.84;4953990;28;2067;-77
2023/05/23 03:43:38;;;;;;;;;;;;;;;16.41;62.50;100368.13;4973511;28;2796;-77
2023/05/23 03:46:05;;;;;;;;;;;;;;;16.39;62.53;100362.16;4971038;28;2169;-76
2023/05/23 03:48:31;;;;;;;;;;;;;;;16.39;62.55;100358.63;4971436;28;2107;-77
2023/05/23 03:50:58;;;;;;;;;;;;;;;16.39;62.50;100364.88;4952269;28;2180;-77
2023/05/23 03:53:24;;;;;;;;;;;;;;;16.38;62.50;100373.25;4954827;28;2148;-77
2023/05/23 03:55:52;;;;;;;;;;;;;;;16.37;62.53;100369.72;4968126;28;2126;-77
2023/05/23 03:58:19;;;;;;;;;;;;;;;16.37;62.47;100369.72;4955074;28;2127;-76
2023/05/23 04:00:46;;;;;;;;;;;;;;;16.37;62.57;100363.47;4971489;28;2000;-77
2023/05/23 04:03:13;;;;;;;;;;;;;;;16.34;62.46;100354.75;4972141;28;2078;-77
2023/05/23 04:05:40;;;;;;;;;;;;;;;16.35;62.50;100352.84;4970669;28;2184;-77
2023/05/23 04:08:07;;;;;;;;;;;;;;;16.35;62.40;100345.56;4970091;28;1993;-77
2023/05/23 04:10:33;;;;;;;;;;;;;;;16.34;62.50;100343.09;4971614;28;1834;-77
2023/05/23 04:13:00;;;;;;;;;;;;;;;16.33;62.39;100336.03;4971437;28;1964;-77
2023/05/23 04:15:26;;;;;;;;;;;;;;;16.33;62.34;100331.41;4969252;28;2143;-76
2023/05/23 04:17:53;;;;;;;;;;;;;;;16.32;62.38;100323.50;4953605;28;2037;-76
2023/05/23 04:20:19;;;;;;;;;;;;;;;16.31;62.37;100311.81;4954205;28;1985;-76
2023/05/23 04:22:46;;;;;;;;;;;;;;;16.30;62.45;100310.19;4970135;28;2281;-76
2023/05/23 04:25:13;;;;;;;;;;;;;;;16.31;62.33;100305.56;4953138;28;2104;-76
2023/05/23 04:27:40;;;;;;;;;;;;;;;16.31;62.38;100319.16;4970821;28;2023;-76
2023/05/23 04:30:08;;;;;;;;;;;;;;;16.29;62.34;100319.41;4970268;28;2221;-77
2023/05/23 04:32:34;;;;;;;;;;;;;;;16.30;62.37;100325.69;4970855;28;1841;-77
2023/05/23 04:35:03;;;;;;;;;;;;;;;16.29;62.32;100322.13;4953343;28;2056;-77
2023/05/23 04:37:31;;;;;;;;;;;;;;;16.27;62.41;100324.31;4969974;28;2227;-76
2023/05/23 04:39:58;;;;;;;;;;;;;;;16.27;62.31;100318.88;4971041;28;2115;-76
2023/05/23 04:42:25;;;;;;;;;;;;;;;16.27;62.32;100315.34;4954711;28;2065;-76
2023/05/23 04:44:51;;;;;;;;;;;;;;;16.28;62.33;100330.56;4951558;28;2115;-76
2023/05/23 04:47:18;;;;;;;;;;;;;;;16.26;62.50;100321.84;4970299;28;4113;-76
2023/05/23 04:49:44;;;;;;;;;;;;;;;16.26;62.30;100324.56;4971151;28;4070;-76
2023/05/23 04:52:12;;;;;;;;;;;;;;;16.27;62.24;100320.78;4951344;28;3028;-76
2023/05/23 04:54:39;;;;;;;;;;;;;;;16.24;62.30;100313.97;4969255;28;2122;-76
2023/05/23 04:57:05;;;;;;;;;;;;;;;16.25;62.29;100312.06;4968820;28;2020;-76
2023/05/23 04:59:32;;;;;;;;;;;;;;;16.23;62.31;100309.59;4969017;28;2095;-76
2023/05/23 05:01:59;;;;;;;;;;;;;;;16.23;62.18;100309.59;4954268;28;2242;-77
2023/05/23 05:04:25;;;;;;;;;;;;;;;16.23;62.21;100314.22;4953200;28;3180;-77
2023/05/23 05:06:52;;;;;;;;;;;;;;;16.22;62.29;100307.97;4970015;28;2229;-77
2023/05/23 05:09:19;;;;;;;;;;;;;;;16.21;62.15;100317.19;4970660;28;2265;-76
2023/05/23 05:11:46;;;;;;;;;;;;;;;16.22;62.28;100321.53;4960233;28;2178;-75
2023/05/23 05:14:12;;;;;;;;;;;;;;;16.21;62.23;100321.81;4953110;28;2049;-76
2023/05/23 05:16:39;;;;;;;;;;;;;;;16.21;62.13;100319.09;4969065;28;2414;-76
2023/05/23 05:19:06;;;;;;;;;;;;;;;16.22;62.17;100323.44;4972167;28;1048;-76
2023/05/23 05:21:32;;;;;;;;;;;;;;;16.20;62.13;100312.84;4970120;28;2023;-76
2023/05/23 05:24:00;;;;;;;;;;;;;;;16.20;62.17;100333.75;4953894;28;2163;-75
2023/05/23 05:26:27;;;;;;;;;;;;;;;16.19;62.13;100318.53;4971614;28;1983;-76
2023/05/23 05:28:53;;;;;;;;;;;;;;;16.19;62.15;100313.91;4944929;28;2832;-76
2023/05/23 05:31:20;;;;;;;;;;;;;;;16.19;61.93;100313.09;4969218;28;2166;-75
2023/05/23 05:33:47;;;;;;;;;;;;;;;16.18;62.35;100312.28;4969451;28;2070;-76
2023/05/23 05:36:13;;;;;;;;;;;;;;;16.17;62.12;100310.63;4953902;28;2084;-77
2023/05/23 05:38:40;;;;;;;;;;;;;;;16.17;62.00;100316.06;4969669;28;2149;-75
2023/05/23 05:41:07;;;;;;;;;;;;;;;16.17;62.03;100316.06;4971642;28;1911;-75
2023/05/23 05:43:33;;;;;;;;;;;;;;;16.17;61.97;100318.78;4971643;28;1971;-75
2023/05/23 05:46:00;;;;;;;;;;;;;;;16.17;62.09;100320.69;4967433;28;2074;-75
2023/05/23 05:48:26;;;;;;;;;;;;;;;16.16;62.02;100325.31;4965294;28;2195;-75
2023/05/23 05:50:53;;;;;;;;;;;;;;;16.17;61.95;100331.56;4967730;28;1949;-76
2023/05/23 05:53:19;;;;;;;;;;;;;;;16.16;61.91;100329.94;4951807;28;3453;-75
2023/05/23 05:55:46;;;;;;;;;;;;;;;16.15;62.02;100320.97;4965727;28;3723;-76
2023/05/23 05:58:12;;;;;;;;;;;;;;;16.15;62.02;100318.25;4954049;28;2587;-75
2023/05/23 06:00:42;;;;;;;;;;;;;;;16.15;62.00;100315.53;4965413;28;2692;-75
2023/05/23 06:03:08;;;;;;;;;;;;;;;16.15;61.91;100311.97;4974869;28;1627;-76
2023/05/23 06:05:36;;;;;;;;;;;;;;;16.15;61.98;100306.53;4975099;28;1088;-75
2023/05/23 06:08:02;;;;;;;;;;;;;;;16.15;61.88;100303.81;4973464;28;1697;-76
2023/05/23 06:10:29;;;;;;;;;;;;;;;16.14;61.86;100300.28;4969170;28;2653;-75
2023/05/23 06:12:55;;;;;;;;;;;;;;;16.14;61.87;100305.72;4972883;28;2613;-75
2023/05/23 06:15:22;;;;;;;;;;;;;;;16.13;61.94;100304.91;4955399;28;2126;-76
2023/05/23 06:17:48;;;;;;;;;;;;;;;16.13;61.88;100310.34;4953312;28;2279;-76
2023/05/23 06:20:15;;;;;;;;;;;;;;;16.14;61.91;100308.44;4975696;28;1910;-76
2023/05/23 06:22:41;;;;;;;;;;;;;;;16.14;61.81;100311.16;4972240;28;2223;-76
2023/05/23 06:25:08;;;;;;;;;;;;;;;16.14;61.92;100313.88;4972786;28;2292;-75
2023/05/23 06:27:34;;;;;;;;;;;;;;;16.14;61.84;100303.00;4971473;28;2210;-76
2023/05/23 06:30:01;;;;;;;;;;;;;;;16.13;61.78;100306.81;4958489;28;1272;-76
2023/05/23 06:32:28;;;;;;;;;;;;;;;16.15;61.83;100312.81;4967354;28;2106;-76
2023/05/23 06:34:54;;;;;;;;;;;;;;;16.13;61.79;100304.09;4954895;28;2094;-75
2023/05/23 06:37:21;;;;;;;;;;;;;;;16.14;61.76;100305.72;4973000;28;1680;-75
2023/05/23 06:39:47;;;;;;;;;;;;;;;16.13;61.73;100313.06;4970668;28;2163;-76
2023/05/23 06:42:14;;;;;;;;;;;;;;;16.13;61.71;100314.97;4973472;28;1930;-75
2023/05/23 06:44:40;;;;;;;;;;;;;;;16.13;61.72;100318.50;4955871;28;1947;-76
2023/05/23 06:47:07;;;;;;;;;;;;;;;16.13;61.74;100321.22;4967964;28;3413;-77
2023/05/23 06:49:33;;;;;;;;;;;;;;;16.13;61.64;100317.69;4956016;28;2175;-76
2023/05/23 06:52:00;;;;;;;;;;;;;;;16.13;61.72;100318.50;4954667;28;2645;-75
2023/05/23 06:54:26;;;;;;;;;;;;;;;16.14;61.78;100327.47;4956215;28;2219;-75
2023/05/23 06:56:53;;;;;;;;;;;;;;;16.12;61.76;100319.59;4965653;28;2545;-75
2023/05/23 06:59:20;;;;;;;;;;;;;;;16.12;61.71;100316.06;4969227;28;2187;-76
2023/05/23 07:01:46;;;;;;;;;;;;;;;16.12;61.64;100319.59;4972628;28;2279;-76
2023/05/23 07:04:12;;;;;;;;;;;;;;;16.12;61.63;100321.50;4971929;28;2774;-74
2023/05/23 07:06:39;;;;;;;;;;;;;;;16.12;61.70;100316.06;4957148;28;1835;-75
2023/05/23 07:09:06;;;;;;;;;;;;;;;15.94;70.75;100319.19;4973318;28;1996;-75
2023/05/23 07:11:34;;;;;;;;;;;;;;;16.04;70.07;100325.50;4955057;28;2744;-76
2023/05/23 07:14:00;;;;;;;;;;;;;;;16.11;66.42;100323.38;4967046;28;2480;-74
2023/05/23 07:16:27;;;;;;;;;;;;;;;16.11;64.95;100326.09;4953490;28;4908;-75
2023/05/23 07:18:53;;;;;;;;;;;;;;;16.11;64.60;100328.81;4956627;28;4834;-76
2023/05/23 07:21:20;;;;;;;;;;;;;;;16.11;64.47;100323.38;4955104;28;2430;-74
2023/05/23 07:23:46;;;;;;;;;;;;;;;16.10;64.52;100327.19;4973661;28;3902;-74
2023/05/23 07:26:13;;;;;;;;;;;;;;;16.11;64.36;100328.81;4956561;28;2164;-75
2023/05/23 07:28:39;;;;;;;;;;;;;;;16.11;64.09;100328.00;4973062;28;1025;-75
2023/05/23 07:31:08;;;;;;;;;;;;;;;16.11;63.86;100330.72;4971422;28;1948;-75
2023/05/23 07:33:34;;;;;;;;;;;;;;;16.11;63.83;100330.72;4970988;28;1503;-74
2023/05/23 07:36:01;;;;;;;;;;;;;;;16.11;63.67;100333.44;4972591;28;4120;-75
2023/05/23 07:38:27;;;;;;;;;;;;;;;16.10;63.58;100334.50;4971480;28;1029;-76
2023/05/23 07:40:54;;;;;;;;;;;;;;;16.11;63.46;100344.28;4972372;28;1969;-75
2023/05/23 07:43:21;;;;;;;;;;;;;;;16.09;63.47;100344.56;4956572;28;1256;-75
2023/05/23 07:45:47;;;;;;;;;;;;;;;16.10;63.46;100338.03;4973224;28;1104;-76
2023/05/23 07:48:14;;;;;;;;;;;;;;;16.09;63.21;100349.19;4971855;28;1024;-77
2023/05/23 07:50:41;;;;;;;;;;;;;;;16.10;63.04;100348.91;4973546;28;1068;-75
2023/05/23 07:53:07;;;;;;;;;;;;;;;16.11;62.96;100355.16;4972359;28;1012;-75
2023/05/23 07:55:34;;;;;;;;;;;;;;;16.09;63.03;100352.72;4954322;28;2104;-76
2023/05/23 07:58:01;;;;;;;;;;;;;;;16.08;63.02;100353.78;4968769;28;1600;-77
2023/05/23 08:00:28;;;;;;;;;;;;;;;16.08;62.99;100351.06;4970331;28;2142;-76
2023/05/23 08:02:54;;;;;;;;;;;;;;;16.10;62.82;100358.97;4970617;28;2208;-76
2023/05/23 08:05:22;;;;;;;;;;;;;;;16.10;62.71;100351.63;4955613;28;1104;-76
2023/05/23 08:07:49;;;;;;;;;;;;;;;16.09;62.65;100349.19;4972853;28;1538;-76
2023/05/23 08:10:16;;;;;;;;;;;;;;;16.10;62.65;100358.97;4970909;28;1428;-76
2023/05/23 08:12:42;;;;;;;;;;;;;;;16.10;62.66;100356.25;4972521;28;1739;-76
2023/05/23 08:15:09;;;;;;;;;;;;;;;16.09;62.83;100354.63;4972047;28;1640;-76
2023/05/23 08:17:35;;;;;;;;;;;;;;;16.09;62.87;100360.06;4953459;28;2338;-76
2023/05/23 08:20:03;;;;;;;;;;;;;;;16.07;62.87;100352.16;4952397;28;1672;-74
2023/05/23 08:22:30;;;;;;;;;;;;;;;16.07;62.78;100354.88;4970723;28;2019;-75
2023/05/23 08:24:57;;;;;;;;;;;;;;;16.07;62.72;100364.91;4971188;28;2241;-75
2023/05/23 08:27:23;;;;;;;;;;;;;;;16.08;62.70;100361.13;4970080;28;1739;-74
2023/05/23 08:29:50;;;;;;;;;;;;;;;16.07;62.80;100364.91;4966340;28;1638;-75
2023/05/23 08:32:16;;;;;;;;;;;;;;;16.06;62.74;100374.97;4961677;28;1946;-75
2023/05/23 08:34:43;;;;;;;;;;;;;;;16.06;62.64;100380.41;4970269;28;1673;-75
2023/05/23 08:37:10;;;;;;;;;;;;;;;16.07;62.73;100390.19;4970442;28;1742;-74
2023/05/23 08:39:36;;;;;;;;;;;;;;;16.06;62.63;100383.13;4968104;28;1527;-75
2023/05/23 08:42:03;;;;;;;;;;;;;;;16.06;62.63;100394.00;4955914;28;1976;-74
2023/05/23 08:44:29;;;;;;;;;;;;;;;16.08;62.53;100391.00;4954073;28;1817;-74
2023/05/23 08:46:57;;;;;;;;;;;;;;;16.06;62.41;100390.44;4967932;28;1813;-75
2023/05/23 08:49:23;;;;;;;;;;;;;;;16.07;62.42;100386.66;4952787;28;1540;-75
2023/05/23 08:51:50;;;;;;;;;;;;;;;16.06;62.39;100385.84;4967249;28;1812;-74
2023/05/23 08:54:17;;;;;;;;;;;;;;;16.05;62.38;100384.19;4965428;28;1954;-75
2023/05/23 08:56:44;;;;;;;;;;;;;;;16.06;62.50;100385.00;4953767;28;1249;-75
2023/05/23 08:59:10;;;;;;;;;;;;;;;16.05;62.50;100399.66;4948907;28;1872;-76
2023/05/23 09:01:38;;;;;;;;;;;;;;;16.06;62.50;100404.00;4963171;28;2146;-76
2023/05/23 09:04:05;;;;;;;;;;;;;;;16.06;62.42;100401.28;4969485;28;2031;-75
2023/05/23 09:06:32;;;;;;;;;;;;;;;16.05;62.49;100407.81;4970346;28;1702;-75
2023/05/23 09:08:59;;;;;;;;;;;;;;;16.05;62.41;100418.69;4953226;28;1781;-74
2023/05/23 09:11:25;;;;;;;;;;;;;;;16.05;62.47;100411.34;4954621;28;1754;-74
2023/05/23 09:13:52;;;;;;;;;;;;;;;16.04;62.42;100411.63;4951603;28;1548;-75
2023/05/23 09:16:18;;;;;;;;;;;;;;;16.04;62.37;100407.00;4968211;28;1949;-76
2023/05/23 09:18:45;;;;;;;;;;;;;;;16.04;62.51;100406.19;4966129;28;2280;-75
2023/05/23 09:21:11;;;;;;;;;;;;;;;16.04;62.43;100412.44;4970084;28;2257;-74
2023/05/23 09:23:39;;;;;;;;;;;;;;;16.04;62.40;100409.72;4963395;28;2079;-75
2023/05/23 09:26:05;;;;;;;;;;;;;;;16.04;62.38;100412.44;4953668;28;1564;-76
2023/05/23 09:28:31;;;;;;;;;;;;;;;16.04;62.36;100417.88;4970215;28;1631;-73
2023/05/23 09:30:58;;;;;;;;;;;;;;;16.04;62.39;100412.44;4971185;28;1726;-73
2023/05/23 09:33:26;;;;;;;;;;;;;;;16.04;62.38;100411.63;4970143;28;1398;-75
2023/05/23 09:35:52;;;;;;;;;;;;;;;16.04;62.44;100408.91;4953577;28;1238;-74
2023/05/23 09:38:19;;;;;;;;;;;;;;;16.04;62.43;100408.91;4969370;28;2208;-74
2023/05/23 09:40:46;;;;;;;;;;;;;;;16.04;62.42;100409.72;4954519;28;1910;-74
2023/05/23 09:43:12;;;;;;;;;;;;;;;16.04;62.31;100412.44;4954106;28;1543;-74
2023/05/23 09:45:39;;;;;;;;;;;;;;;16.04;62.29;100417.06;4969197;28;3977;-76
2023/05/23 09:48:06;;;;;;;;;;;;;;;16.04;62.41;100420.59;4966748;28;4609;-76
2023/05/23 09:50:32;;;;;;;;;;;;;;;16.04;62.39;100420.59;4952758;28;1524;-76
2023/05/23 09:52:59;;;;;;;;;;;;;;;16.06;62.26;100421.16;4971669;28;4696;-74
2023/05/23 09:55:26;;;;;;;;;;;;;;;16.04;62.38;100414.34;4970707;28;1028;-73
2023/05/23 09:57:53;;;;;;;;;;;;;;;16.04;62.20;100423.28;4966251;28;2167;-75
2023/05/23 10:00:20;;;;;;;;;;;;;;;16.04;62.28;100417.88;4953391;28;1564;-75
2023/05/23 10:02:46;;;;;;;;;;;;;;;16.03;62.36;100424.38;4970522;28;2009;-74
2023/05/23 10:05:13;;;;;;;;;;;;;;;16.04;62.37;100425.19;4970253;28;3154;-75
2023/05/23 10:07:39;;;;;;;;;;;;;;;16.04;62.33;100425.19;4969745;28;1516;-75
2023/05/23 10:10:06;;;;;;;;;;;;;;;16.03;62.39;100424.38;4969011;28;1564;-74
2023/05/23 10:12:32;;;;;;;;;;;;;;;16.05;62.37;100434.97;4970043;28;1536;-74
2023/05/23 10:14:59;;;;;;;;;;;;;;;16.05;62.37;100432.25;4969940;28;1536;-74
2023/05/23 10:17:25;;;;;;;;;;;;;;;16.05;62.34;100429.53;4964761;28;2677;-75
2023/05/23 10:19:52;;;;;;;;;;;;;;;16.05;62.35;100433.06;4966664;28;1828;-76
2023/05/23 10:22:18;;;;;;;;;;;;;;;16.05;62.29;100429.53;4968572;28;2158;-75
2023/05/23 10:24:45;;;;;;;;;;;;;;;16.05;62.35;100433.06;4969476;28;1855;-75
2023/05/23 10:27:11;;;;;;;;;;;;;;;16.06;62.37;100428.47;4965993;28;2008;-74
2023/05/23 10:29:38;;;;;;;;;;;;;;;16.05;62.32;100435.78;4969665;28;1520;-75
2023/05/23 10:32:04;;;;;;;;;;;;;;;16.05;62.23;100440.41;4953091;28;1728;-75
2023/05/23 10:34:31;;;;;;;;;;;;;;;16.06;62.29;100434.72;4968562;28;1829;-75
2023/05/23 10:36:58;;;;;;;;;;;;;;;16.04;62.25;100434.16;4970425;28;1020;-75
2023/05/23 10:39:24;;;;;;;;;;;;;;;16.06;62.36;100439.31;4969878;28;1588;-74
2023/05/23 10:41:51;;;;;;;;;;;;;;;16.06;62.24;100450.19;4969309;28;2119;-74
2023/05/23 10:44:17;;;;;;;;;;;;;;;16.06;62.18;100452.91;4968722;28;1552;-75
2023/05/23 10:46:44;;;;;;;;;;;;;;;16.06;62.25;100453.75;4969225;28;1635;-74
2023/05/23 10:49:10;;;;;;;;;;;;;;;16.06;62.30;100455.63;4971738;28;1741;-74
2023/05/23 10:51:37;;;;;;;;;;;;;;;16.06;62.23;100455.63;4973370;28;1643;-74
2023/05/23 10:54:03;;;;;;;;;;;;;;;16.06;62.27;100455.63;4955666;28;1551;-75
2023/05/23 10:56:30;;;;;;;;;;;;;;;16.06;62.24;100453.75;4967979;28;1958;-75
2023/05/23 10:58:57;;;;;;;;;;;;;;;16.05;62.24;100454.81;4970734;28;1962;-74
2023/05/23 11:01:23;;;;;;;;;;;;;;;16.06;62.20;100453.75;4953523;28;1911;-74
2023/05/23 11:03:50;;;;;;;;;;;;;;;16.06;62.24;100453.75;4974190;28;1520;-75
2023/05/23 11:06:16;;;;;;;;;;;;;;;16.07;62.29;100454.56;4969762;28;1534;-75
2023/05/23 11:08:44;;;;;;;;;;;;;;;16.06;62.26;100452.91;4970332;28;1982;-75
2023/05/23 11:11:11;;;;;;;;;;;;;;;16.06;62.21;100452.91;4970872;28;1568;-76
2023/05/23 11:13:37;;;;;;;;;;;;;;;16.06;62.23;100456.47;4972590;28;2262;-75
2023/05/23 11:16:04;;;;;;;;;;;;;;;16.06;62.30;100452.91;4945693;28;2220;-75
2023/05/23 11:18:31;;;;;;;;;;;;;;;16.06;62.23;100459.19;4972228;28;2074;-77
2023/05/23 11:20:57;;;;;;;;;;;;;;;16.07;62.17;100443.69;4973830;28;1045;-75
2023/05/23 11:23:24;;;;;;;;;;;;;;;16.06;62.21;100445.59;4971994;28;2046;-76
2023/05/23 11:25:50;;;;;;;;;;;;;;;16.07;62.17;100451.84;4970907;28;2085;-75
2023/05/23 11:28:17;;;;;;;;;;;;;;;16.07;62.28;100447.22;4969739;28;1486;-75
2023/05/23 11:30:44;;;;;;;;;;;;;;;16.07;62.08;100446.41;4955664;28;1927;-77
2023/05/23 11:33:12;;;;;;;;;;;;;;;16.07;62.18;100443.69;4973203;28;1570;-75
2023/05/23 11:35:39;;;;;;;;;;;;;;;16.08;62.24;100442.59;4968134;28;1380;-75
2023/05/23 11:38:06;;;;;;;;;;;;;;;16.07;62.21;100455.38;4952308;28;1681;-77
2023/05/23 11:40:32;;;;;;;;;;;;;;;16.10;62.15;100445.91;4966812;28;1756;-76
2023/05/23 11:42:59;;;;;;;;;;;;;;;16.09;62.16;100449.69;4970036;28;1918;-77
2023/05/23 11:45:26;;;;;;;;;;;;;;;16.09;62.08;100450.50;4968963;28;1654;-75
2023/05/23 11:47:52;;;;;;;;;;;;;;;16.08;62.13;100457.00;4969932;28;1166;-77
2023/05/23 11:50:19;;;;;;;;;;;;;;;16.10;62.02;100460.28;4966484;28;2024;-75
2023/05/23 11:52:50;;;;;;;;;;;;;;;16.10;62.20;100452.13;4953776;28;1354;-75
2023/05/23 11:55:17;;;;;;;;;;;;;;;16.10;61.88;100452.13;4968241;28;1518;-76
2023/05/23 11:57:43;;;;;;;;;;;;;;;16.10;62.10;100454.84;4968794;28;1867;-75
2023/05/23 12:00:10;;;;;;;;;;;;;;;16.11;62.14;100447.53;4968520;28;1811;-75
2023/05/23 12:02:36;;;;;;;;;;;;;;;16.11;62.20;100459.19;4969468;28;1906;-74
2023/05/23 12:05:03;;;;;;;;;;;;;;;16.11;62.20;100467.34;4967052;28;1933;-75
2023/05/23 12:07:29;;;;;;;;;;;;;;;16.13;62.17;100473.34;4967589;28;1546;-73
2023/05/23 12:09:56;;;;;;;;;;;;;;;16.13;62.08;100467.94;4969288;28;1404;-74
2023/05/23 12:12:23;;;;;;;;;;;;;;;16.13;62.22;100462.50;4970500;28;1109;-74
2023/05/23 12:14:49;;;;;;;;;;;;;;;16.13;62.09;100473.34;4966930;28;1883;-77
2023/05/23 12:17:16;;;;;;;;;;;;;;;16.14;62.22;100471.44;4965604;28;4720;-74
2023/05/23 12:19:42;;;;;;;;;;;;;;;16.14;62.21;100474.16;4950051;28;5656;-75
2023/05/23 12:22:09;;;;;;;;;;;;;;;16.14;62.16;100471.44;4945156;28;2005;-76
2023/05/23 12:24:35;;;;;;;;;;;;;;;15.83;62.02;100435.88;4950515;28;3172;-77
2023/05/23 12:27:02;;;;;;;;;;;;;;;16.16;62.16;100488.31;4967197;28;1492;-75
2023/05/23 12:29:28;;;;;;;;;;;;;;;16.15;62.18;100494.84;4970120;28;1570;-76
2023/05/23 12:31:55;;;;;;;;;;;;;;;16.16;62.13;100510.06;4950503;28;1590;-76
2023/05/23 12:34:21;;;;;;;;;;;;;;;16.17;62.08;100502.72;4969829;28;1383;-77
2023/05/23 12:36:49;;;;;;;;;;;;;;;16.16;62.21;100506.53;4965988;28;1782;-76
2023/05/23 12:39:15;;;;;;;;;;;;;;;16.17;62.24;100508.16;4952120;28;1198;-75
2023/05/23 12:41:42;;;;;;;;;;;;;;;16.17;62.16;100508.16;4950360;28;1906;-77
2023/05/23 12:44:09;;;;;;;;;;;;;;;16.18;62.18;100504.34;4970571;28;1116;-78